Aviation Digital Data Service (ADDS)

Output produced by METARs form (2142 UTC 20 October 2018)
found at http://www.aviationweather.gov/metar/data/
 
GLRB 202130Z 15003KT 9999 SCT012 FEW024CB 27/25 Q1010 RMK CB-NE
TAF GLRB 201600Z 2018/2124 20008KT 9000 BKN016 FEW025CB 
     BECMG 2021/2023 00000KT 8000 -RA BKN013 FEW023CB 
     TEMPO 2102/2106 VRB03KT 9000